sensor_id;sensor_type;location;lat;lon;timestamp;pressure;altitude;pressure_sealevel;temperature;humidity
41712;BME280;27399;51.516;13.670;2023-02-01T00:01:31;100255.69;;;6.39;81.99
41712;BME280;27399;51.516;13.670;2023-02-01T00:03:57;100249.41;;;6.26;81.14
41712;BME280;27399;51.516;13.670;2023-02-01T00:06:22;100252.13;;;6.39;80.74
41712;BME280;27399;51.516;13.670;2023-02-01T00:08:48;100256.47;;;6.27;80.93
41712;BME280;27399;51.516;13.670;2023-02-01T00:11:14;100246.78;;;6.29;80.53
41712;BME280;27399;51.516;13.670;2023-02-01T00:13:41;100249.34;;;6.15;79.70
41712;BME280;27399;51.516;13.670;2023-02-01T00:16:18;100255.50;;;6.10;80.30
41712;BME280;27399;51.516;13.670;2023-02-01T00:18:46;100249.47;;;6.34;80.00
41712;BME280;27399;51.516;13.670;2023-02-01T00:21:12;100241.31;;;6.01;79.14
41712;BME280;27399;51.516;13.670;2023-02-01T00:23:38;100251.13;;;6.19;79.07
41712;BME280;27399;51.516;13.670;2023-02-01T00:26:06;100249.44;;;6.28;78.94
41712;BME280;27399;51.516;13.670;2023-02-01T00:28:33;100257.34;;;6.23;80.69
41712;BME280;27399;51.516;13.670;2023-02-01T00:31:00;100251.91;;;6.04;79.05
41712;BME280;27399;51.516;13.670;2023-02-01T00:33:26;100247.63;;;6.25;78.66
41712;BME280;27399;51.516;13.670;2023-02-01T00:36:06;100261.81;;;6.35;78.44
41712;BME280;27399;51.516;13.670;2023-02-01T00:38:33;100260.97;;;6.41;78.82
41712;BME280;27399;51.516;13.670;2023-02-01T00:41:03;100249.38;;;6.22;78.02
41712;BME280;27399;51.516;13.670;2023-02-01T00:43:33;100237.00;;;6.20;79.33
41712;BME280;27399;51.516;13.670;2023-02-01T00:45:59;100253.72;;;6.09;78.32
41712;BME280;27399;51.516;13.670;2023-02-01T00:48:25;100252.94;;;6.28;78.11
41712;BME280;27399;51.516;13.670;2023-02-01T00:50:51;100261.75;;;6.23;77.25
41712;BME280;27399;51.516;13.670;2023-02-01T00:53:17;100266.28;;;6.41;77.91
41712;BME280;27399;51.516;13.670;2023-02-01T00:55:47;100255.69;;;6.39;78.80
41712;BME280;27399;51.516;13.670;2023-02-01T00:58:12;100258.19;;;6.17;77.20
41712;BME280;27399;51.516;13.670;2023-02-01T01:00:38;100257.38;;;6.31;76.37
41712;BME280;27399;51.516;13.670;2023-02-01T01:03:04;100252.97;;;6.27;76.68
41712;BME280;27399;51.516;13.670;2023-02-01T01:05:49;100249.31;;;6.14;76.61
41712;BME280;27399;51.516;13.670;2023-02-01T01:08:15;100267.94;;;6.26;77.75
41712;BME280;27399;51.516;13.670;2023-02-01T01:10:42;100262.69;;;6.29;77.22
41712;BME280;27399;51.516;13.670;2023-02-01T01:13:08;100270.59;;;6.26;76.82
41712;BME280;27399;51.516;13.670;2023-02-01T01:15:41;100256.19;;;5.92;77.40
41712;BME280;27399;51.516;13.670;2023-02-01T01:18:07;100247.66;;;6.30;76.58
41712;BME280;27399;51.516;13.670;2023-02-01T01:20:35;100257.19;;;6.01;77.46
41712;BME280;27399;51.516;13.670;2023-02-01T01:23:01;100262.53;;;6.08;77.63
41712;BME280;27399;51.516;13.670;2023-02-01T01:25:26;100267.75;;;6.00;78.09
41712;BME280;27399;51.516;13.670;2023-02-01T01:27:52;100260.81;;;6.13;78.22
41712;BME280;27399;51.516;13.670;2023-02-01T01:30:18;100254.53;;;6.00;77.16
41712;BME280;27399;51.516;13.670;2023-02-01T01:32:44;100254.56;;;6.01;76.78
41712;BME280;27399;51.516;13.670;2023-02-01T01:35:10;100250.06;;;5.96;77.15
41712;BME280;27399;51.516;13.670;2023-02-01T01:37:36;100255.31;;;5.94;77.50
41712;BME280;27399;51.516;13.670;2023-02-01T01:40:03;100251.00;;;6.01;77.87
41712;BME280;27399;51.516;13.670;2023-02-01T01:42:29;100250.97;;;5.98;77.90
41712;BME280;27399;51.516;13.670;2023-02-01T01:45:05;100250.88;;;5.85;77.01
41712;BME280;27399;51.516;13.670;2023-02-01T01:47:39;100211.16;;;5.87;76.21
41712;BME280;27399;51.516;13.670;2023-02-01T01:50:08;100244.69;;;5.88;76.27
41712;BME280;27399;51.516;13.670;2023-02-01T01:52:36;100236.88;;;6.03;76.96
41712;BME280;27399;51.516;13.670;2023-02-01T01:55:03;100231.66;;;6.08;75.92
41712;BME280;27399;51.516;13.670;2023-02-01T01:57:38;100220.06;;;5.98;76.90
41712;BME280;27399;51.516;13.670;2023-02-01T02:00:13;100226.22;;;5.94;75.96
41712;BME280;27399;51.516;13.670;2023-02-01T02:02:41;100233.44;;;6.12;75.40
41712;BME280;27399;51.516;13.670;2023-02-01T02:05:08;100221.78;;;5.92;76.02
41712;BME280;27399;51.516;13.670;2023-02-01T02:07:37;100215.72;;;6.02;76.30
41712;BME280;27399;51.516;13.670;2023-02-01T02:10:07;100211.28;;;6.01;75.51
41712;BME280;27399;51.516;13.670;2023-02-01T02:12:38;100213.25;;;6.31;75.66
41712;BME280;27399;51.516;13.670;2023-02-01T02:15:06;100202.56;;;6.16;75.28
41712;BME280;27399;51.516;13.670;2023-02-01T02:17:36;100198.97;;;6.08;75.58
41712;BME280;27399;51.516;13.670;2023-02-01T02:28:59;100196.31;;;6.01;76.31
41712;BME280;27399;51.516;13.670;2023-02-01T02:41:52;100210.44;;;6.07;75.96
41712;BME280;27399;51.516;13.670;2023-02-01T02:44:57;100209.59;;;6.14;76.47
41712;BME280;27399;51.516;13.670;2023-02-01T02:47:56;100209.44;;;5.92;76.70
41712;BME280;27399;51.516;13.670;2023-02-01T02:50:46;100200.53;;;5.84;77.78
41712;BME280;27399;51.516;13.670;2023-02-01T02:53:48;100198.69;;;5.70;78.06
41712;BME280;27399;51.516;13.670;2023-02-01T02:56:35;100205.81;;;5.78;78.42
41712;BME280;27399;51.516;13.670;2023-02-01T02:59:21;100210.28;;;5.88;77.82
41712;BME280;27399;51.516;13.670;2023-02-01T03:02:07;100209.28;;;5.73;78.66
41712;BME280;27399;51.516;13.670;2023-02-01T03:04:55;100214.53;;;5.67;78.84
41712;BME280;27399;51.516;13.670;2023-02-01T03:07:54;100221.75;;;5.85;78.77
41712;BME280;27399;51.516;13.670;2023-02-01T03:10:23;100227.69;;;5.59;78.66
41712;BME280;27399;51.516;13.670;2023-02-01T03:12:52;100227.88;;;5.83;78.43
41712;BME280;27399;51.516;13.670;2023-02-01T03:15:31;100222.63;;;5.86;78.35
41712;BME280;27399;51.516;13.670;2023-02-01T03:18:00;100219.16;;;5.95;78.22
41712;BME280;27399;51.516;13.670;2023-02-01T03:20:27;100223.56;;;5.91;78.28
41712;BME280;27399;51.516;13.670;2023-02-01T03:22:55;100210.31;;;5.91;78.19
41712;BME280;27399;51.516;13.670;2023-02-01T03:25:29;100213.81;;;5.88;78.51
41712;BME280;27399;51.516;13.670;2023-02-01T03:28:07;100212.03;;;5.87;79.08
41712;BME280;27399;51.516;13.670;2023-02-01T03:30:43;100208.47;;;5.84;78.85
41712;BME280;27399;51.516;13.670;2023-02-01T03:33:17;100210.31;;;5.94;79.02
41712;BME280;27399;51.516;13.670;2023-02-01T03:38:35;100204.13;;;5.90;79.11
41712;BME280;27399;51.516;13.670;2023-02-01T03:41:10;100199.75;;;5.97;79.84
41712;BME280;27399;51.516;13.670;2023-02-01T03:43:53;100202.50;;;6.07;78.84
41712;BME280;27399;51.516;13.670;2023-02-01T03:46:33;100200.81;;;6.18;79.14
41712;BME280;27399;51.516;13.670;2023-02-01T03:49:06;100193.72;;;6.11;78.58
41712;BME280;27399;51.516;13.670;2023-02-01T03:51:36;100191.88;;;6.00;79.12
41712;BME280;27399;51.516;13.670;2023-02-01T03:54:04;100184.97;;;6.24;78.11
41712;BME280;27399;51.516;13.670;2023-02-01T03:56:32;100183.06;;;6.03;78.78
41712;BME280;27399;51.516;13.670;2023-02-01T03:58:58;100176.97;;;6.12;78.48
41712;BME280;27399;51.516;13.670;2023-02-01T04:01:28;100187.53;;;6.07;78.93
41712;BME280;27399;51.516;13.670;2023-02-01T04:03:55;100174.13;;;5.90;79.13
41712;BME280;27399;51.516;13.670;2023-02-01T04:06:21;100169.00;;;6.12;78.56
41712;BME280;27399;51.516;13.670;2023-02-01T04:08:47;100163.56;;;5.93;79.09
41712;BME280;27399;51.516;13.670;2023-02-01T04:11:12;100154.69;;;5.83;78.78
41712;BME280;27399;51.516;13.670;2023-02-01T04:13:38;100151.22;;;5.92;78.89
41712;BME280;27399;51.516;13.670;2023-02-01T04:16:05;100152.19;;;6.07;78.58
41712;BME280;27399;51.516;13.670;2023-02-01T04:18:30;100147.78;;;6.05;78.65
41712;BME280;27399;51.516;13.670;2023-02-01T04:20:56;100151.34;;;6.12;78.30
41712;BME280;27399;51.516;13.670;2023-02-01T04:23:21;100155.69;;;5.99;78.33
41712;BME280;27399;51.516;13.670;2023-02-01T04:25:47;100142.41;;;5.96;79.51
41712;BME280;27399;51.516;13.670;2023-02-01T04:28:12;100152.25;;;6.13;78.48
41712;BME280;27399;51.516;13.670;2023-02-01T04:30:38;100145.94;;;5.94;78.59
41712;BME280;27399;51.516;13.670;2023-02-01T04:33:04;100141.47;;;5.89;79.43
41712;BME280;27399;51.516;13.670;2023-02-01T04:35:33;100145.75;;;5.67;78.94
41712;BME280;27399;51.516;13.670;2023-02-01T04:37:59;100135.41;;;6.01;79.31
41712;BME280;27399;51.516;13.670;2023-02-01T04:40:25;100139.69;;;5.87;79.64
41712;BME280;27399;51.516;13.670;2023-02-01T04:42:50;100142.59;;;6.24;78.84
41712;BME280;27399;51.516;13.670;2023-02-01T04:45:16;100138.06;;;6.01;78.91
41712;BME280;27399;51.516;13.670;2023-02-01T04:47:42;100143.34;;;6.00;78.85
41712;BME280;27399;51.516;13.670;2023-02-01T04:50:08;100132.81;;;6.14;78.81
41712;BME280;27399;51.516;13.670;2023-02-01T04:52:36;100126.59;;;6.05;78.78
41712;BME280;27399;51.516;13.670;2023-02-01T04:55:02;100128.34;;;6.00;78.75
41712;BME280;27399;51.516;13.670;2023-02-01T04:57:28;100135.41;;;6.01;78.93
41712;BME280;27399;51.516;13.670;2023-02-01T04:59:54;100127.53;;;6.15;78.61
41712;BME280;27399;51.516;13.670;2023-02-01T05:02:19;100118.72;;;6.16;78.91
41712;BME280;27399;51.516;13.670;2023-02-01T05:04:45;100115.25;;;6.27;78.21
41712;BME280;27399;51.516;13.670;2023-02-01T05:07:11;100113.50;;;6.29;78.09
41712;BME280;27399;51.516;13.670;2023-02-01T05:09:36;100108.09;;;6.10;78.69
41712;BME280;27399;51.516;13.670;2023-02-01T05:12:02;100102.84;;;6.16;78.39
41712;BME280;27399;51.516;13.670;2023-02-01T05:14:46;100106.34;;;6.15;78.85
41712;BME280;27399;51.516;13.670;2023-02-01T05:17:13;100104.66;;;6.33;78.29
41712;BME280;27399;51.516;13.670;2023-02-01T05:19:38;100103.66;;;6.08;79.51
41712;BME280;27399;51.516;13.670;2023-02-01T05:22:04;100095.75;;;6.12;78.33
41712;BME280;27399;51.516;13.670;2023-02-01T05:24:29;100103.75;;;6.26;78.16
41712;BME280;27399;51.516;13.670;2023-02-01T05:26:55;100094.94;;;6.26;78.24
41712;BME280;27399;51.516;13.670;2023-02-01T05:29:21;100099.34;;;6.33;77.85
41712;BME280;27399;51.516;13.670;2023-02-01T05:31:47;100094.91;;;6.23;77.85
41712;BME280;27399;51.516;13.670;2023-02-01T05:34:13;100089.66;;;6.35;77.98
41712;BME280;27399;51.516;13.670;2023-02-01T05:36:39;100086.00;;;6.03;77.97
41712;BME280;27399;51.516;13.670;2023-02-01T05:39:05;100089.56;;;6.09;78.03
41712;BME280;27399;51.516;13.670;2023-02-01T05:41:30;100090.44;;;6.09;78.12
41712;BME280;27399;51.516;13.670;2023-02-01T05:43:56;100083.47;;;6.27;77.94
41712;BME280;27399;51.516;13.670;2023-02-01T05:46:22;100087.88;;;6.29;77.55
41712;BME280;27399;51.516;13.670;2023-02-01T05:48:48;100082.53;;;6.17;77.85
41712;BME280;27399;51.516;13.670;2023-02-01T05:51:14;100078.97;;;6.07;77.41
41712;BME280;27399;51.516;13.670;2023-02-01T05:53:39;100082.56;;;6.26;77.92
41712;BME280;27399;51.516;13.670;2023-02-01T05:56:05;100081.59;;;6.10;77.53
41712;BME280;27399;51.516;13.670;2023-02-01T05:58:31;100064.91;;;6.28;77.96
41712;BME280;27399;51.516;13.670;2023-02-01T06:01:01;100065.72;;;6.04;77.20
41712;BME280;27399;51.516;13.670;2023-02-01T06:03:27;100071.94;;;6.20;77.68
41712;BME280;27399;51.516;13.670;2023-02-01T06:05:53;100066.72;;;6.32;78.14
41712;BME280;27399;51.516;13.670;2023-02-01T06:08:19;100058.66;;;6.14;77.29
41712;BME280;27399;51.516;13.670;2023-02-01T06:10:44;100064.09;;;6.40;77.04
41712;BME280;27399;51.516;13.670;2023-02-01T06:13:10;100065.75;;;6.16;77.20
41712;BME280;27399;51.516;13.670;2023-02-01T06:15:38;100065.81;;;6.35;77.55
41712;BME280;27399;51.516;13.670;2023-02-01T06:18:04;100064.91;;;6.22;77.59
41712;BME280;27399;51.516;13.670;2023-02-01T06:20:29;100065.72;;;6.02;78.41
41712;BME280;27399;51.516;13.670;2023-02-01T06:22:55;100051.63;;;6.20;78.43
41712;BME280;27399;51.516;13.670;2023-02-01T06:25:21;100066.69;;;6.23;78.24
41712;BME280;27399;51.516;13.670;2023-02-01T06:27:47;100071.97;;;6.23;77.63
41712;BME280;27399;51.516;13.670;2023-02-01T06:30:13;100064.91;;;6.24;77.62
41712;BME280;27399;51.516;13.670;2023-02-01T06:32:42;100069.28;;;6.15;78.66
41712;BME280;27399;51.516;13.670;2023-02-01T06:35:09;100067.56;;;6.27;77.33
41712;BME280;27399;51.516;13.670;2023-02-01T06:37:41;100070.16;;;6.11;77.07
41712;BME280;27399;51.516;13.670;2023-02-01T06:40:07;100055.16;;;6.07;76.87
41712;BME280;27399;51.516;13.670;2023-02-01T06:42:34;100056.72;;;5.77;77.09
41712;BME280;27399;51.516;13.670;2023-02-01T06:44:59;100057.69;;;5.95;76.72
41712;BME280;27399;51.516;13.670;2023-02-01T06:47:25;100060.44;;;6.07;77.01
41712;BME280;27399;51.516;13.670;2023-02-01T06:49:50;100051.59;;;6.00;77.87
41712;BME280;27399;51.516;13.670;2023-02-01T06:52:16;100057.84;;;6.27;76.87
41712;BME280;27399;51.516;13.670;2023-02-01T06:54:41;100048.16;;;6.35;76.29
41712;BME280;27399;51.516;13.670;2023-02-01T06:57:07;100043.69;;;6.16;76.64
41712;BME280;27399;51.516;13.670;2023-02-01T06:59:33;100044.47;;;5.95;76.54
41712;BME280;27399;51.516;13.670;2023-02-01T07:01:58;100037.56;;;6.23;76.57
41712;BME280;27399;51.516;13.670;2023-02-01T07:04:24;100048.94;;;6.07;76.57
41712;BME280;27399;51.516;13.670;2023-02-01T07:06:49;100052.53;;;6.27;77.93
41712;BME280;27399;51.516;13.670;2023-02-01T07:09:15;100050.69;;;6.00;78.22
41712;BME280;27399;51.516;13.670;2023-02-01T07:11:41;100052.38;;;5.93;79.60
41712;BME280;27399;51.516;13.670;2023-02-01T07:14:09;100047.03;;;5.79;80.63
41712;BME280;27399;51.516;13.670;2023-02-01T07:16:35;100048.84;;;5.94;81.58
41712;BME280;27399;51.516;13.670;2023-02-01T07:19:01;100055.03;;;5.93;81.99
41712;BME280;27399;51.516;13.670;2023-02-01T07:21:27;100052.38;;;5.85;82.85
41712;BME280;27399;51.516;13.670;2023-02-01T07:23:54;100052.38;;;5.85;82.33
41712;BME280;27399;51.516;13.670;2023-02-01T07:26:19;100049.78;;;5.98;81.79
41712;BME280;27399;51.516;13.670;2023-02-01T07:28:45;100044.47;;;5.96;81.54
41712;BME280;27399;51.516;13.670;2023-02-01T07:31:17;100043.56;;;5.88;82.21
41712;BME280;27399;51.516;13.670;2023-02-01T07:33:44;100041.03;;;6.10;81.21
41712;BME280;27399;51.516;13.670;2023-02-01T07:36:13;100036.63;;;6.13;81.20
41712;BME280;27399;51.516;13.670;2023-02-01T07:38:39;100035.75;;;6.16;81.21
41712;BME280;27399;51.516;13.670;2023-02-01T07:41:05;100038.34;;;6.07;81.49
41712;BME280;27399;51.516;13.670;2023-02-01T07:43:32;100029.38;;;5.77;81.21
41712;BME280;27399;51.516;13.670;2023-02-01T07:46:02;100021.53;;;5.92;81.23
41712;BME280;27399;51.516;13.670;2023-02-01T07:48:28;100014.41;;;5.85;80.85
41712;BME280;27399;51.516;13.670;2023-02-01T07:51:02;100008.25;;;5.89;81.40
41712;BME280;27399;51.516;13.670;2023-02-01T07:53:29;100010.94;;;5.98;81.23
41712;BME280;27399;51.516;13.670;2023-02-01T07:55:55;100010.00;;;5.84;80.70
41712;BME280;27399;51.516;13.670;2023-02-01T07:58:24;99990.63;;;5.88;80.85
41712;BME280;27399;51.516;13.670;2023-02-01T08:00:50;99991.50;;;5.87;81.41
41712;BME280;27399;51.516;13.670;2023-02-01T08:03:35;99996.91;;;6.12;80.81
41712;BME280;27399;51.516;13.670;2023-02-01T08:06:00;99999.56;;;6.19;81.26
41712;BME280;27399;51.516;13.670;2023-02-01T08:08:26;100008.25;;;5.84;81.78
41712;BME280;27399;51.516;13.670;2023-02-01T08:10:57;99998.53;;;5.82;82.22
41712;BME280;27399;51.516;13.670;2023-02-01T08:13:23;99998.66;;;6.16;81.76
41712;BME280;27399;51.516;13.670;2023-02-01T08:15:49;100000.47;;;6.20;82.31
41712;BME280;27399;51.516;13.670;2023-02-01T08:18:14;99999.47;;;5.96;82.13
41712;BME280;27399;51.516;13.670;2023-02-01T08:20:46;99991.56;;;6.05;82.92
41712;BME280;27399;51.516;13.670;2023-02-01T08:23:12;99991.63;;;6.12;82.97
41712;BME280;27399;51.516;13.670;2023-02-01T08:25:38;99985.34;;;5.94;83.36
41712;BME280;27399;51.516;13.670;2023-02-01T08:28:05;99990.72;;;6.14;83.06
41712;BME280;27399;51.516;13.670;2023-02-01T08:30:31;99987.97;;;5.89;82.98
41712;BME280;27399;51.516;13.670;2023-02-01T08:32:57;99976.47;;;5.75;82.93
41712;BME280;27399;51.516;13.670;2023-02-01T08:35:23;99975.59;;;5.82;82.36
41712;BME280;27399;51.516;13.670;2023-02-01T08:37:52;99978.28;;;5.96;82.59
41712;BME280;27399;51.516;13.670;2023-02-01T08:40:17;99974.84;;;6.19;82.76
41712;BME280;27399;51.516;13.670;2023-02-01T08:42:44;99981.94;;;6.29;81.46
41712;BME280;27399;51.516;13.670;2023-02-01T08:45:24;99980.09;;;6.03;82.04
41712;BME280;27399;51.516;13.670;2023-02-01T08:47:53;99954.53;;;6.02;82.10
41712;BME280;27399;51.516;13.670;2023-02-01T08:50:20;99969.56;;;6.19;82.90
41712;BME280;27399;51.516;13.670;2023-02-01T08:52:46;99942.13;;;5.92;82.12
41712;BME280;27399;51.516;13.670;2023-02-01T08:55:12;99963.41;;;6.29;81.79
41712;BME280;27399;51.516;13.670;2023-02-01T08:57:38;99946.63;;;6.21;82.93
41712;BME280;27399;51.516;13.670;2023-02-01T09:00:06;99950.09;;;6.00;82.67
41712;BME280;27399;51.516;13.670;2023-02-01T09:02:33;99953.66;;;6.10;82.71
41712;BME280;27399;51.516;13.670;2023-02-01T09:04:59;99953.72;;;6.34;82.69
41712;BME280;27399;51.516;13.670;2023-02-01T09:07:25;99952.81;;;6.28;82.66
41712;BME280;27399;51.516;13.670;2023-02-01T09:09:50;99943.09;;;6.28;81.75
41712;BME280;27399;51.516;13.670;2023-02-01T09:12:16;99950.16;;;6.18;82.48
41712;BME280;27399;51.516;13.670;2023-02-01T09:14:42;99951.03;;;6.22;84.25
41712;BME280;27399;51.516;13.670;2023-02-01T09:17:08;99913.00;;;5.98;83.93
41712;BME280;27399;51.516;13.670;2023-02-01T09:19:34;99945.72;;;6.14;83.97
41712;BME280;27399;51.516;13.670;2023-02-01T09:21:59;99951.91;;;6.41;83.63
41712;BME280;27399;51.516;13.670;2023-02-01T09:24:25;99950.16;;;6.34;84.06
41712;BME280;27399;51.516;13.670;2023-02-01T09:26:51;99959.81;;;6.02;85.13
41712;BME280;27399;51.516;13.670;2023-02-01T09:29:17;99961.63;;;6.13;85.49
41712;BME280;27399;51.516;13.670;2023-02-01T09:31:43;99960.72;;;6.11;85.94
41712;BME280;27399;51.516;13.670;2023-02-01T09:34:08;99965.94;;;5.95;86.77
41712;BME280;27399;51.516;13.670;2023-02-01T09:36:35;99967.66;;;5.87;88.33
41712;BME280;27399;51.516;13.670;2023-02-01T09:39:01;99983.63;;;6.05;87.17
41712;BME280;27399;51.516;13.670;2023-02-01T09:41:46;99955.97;;;5.32;88.75
41712;BME280;27399;51.516;13.670;2023-02-01T09:46:47;99980.88;;;5.78;89.68
41712;BME280;27399;51.516;13.670;2023-02-01T09:49:18;99987.91;;;5.71;88.96
41712;BME280;27399;51.516;13.670;2023-02-01T09:51:49;99981.78;;;5.86;89.05
41712;BME280;27399;51.516;13.670;2023-02-01T09:56:49;99993.06;;;5.46;89.97
41712;BME280;27399;51.516;13.670;2023-02-01T09:59:32;99997.59;;;5.69;90.66
41712;BME280;27399;51.516;13.670;2023-02-01T10:02:02;99994.75;;;5.32;90.42
41712;BME280;27399;51.516;13.670;2023-02-01T10:04:28;100003.75;;;5.66;90.70
41712;BME280;27399;51.516;13.670;2023-02-01T10:09:42;100001.09;;;5.66;90.83
41712;BME280;27399;51.516;13.670;2023-02-01T10:20:07;100009.78;;;5.40;91.37
41712;BME280;27399;51.516;13.670;2023-02-01T10:22:54;100012.31;;;5.22;91.48
41712;BME280;27399;51.516;13.670;2023-02-01T10:25:36;100011.50;;;5.31;92.40
41712;BME280;27399;51.516;13.670;2023-02-01T10:28:03;100020.41;;;5.47;92.27
41712;BME280;27399;51.516;13.670;2023-02-01T10:30:42;100016.78;;;5.32;92.13
41712;BME280;27399;51.516;13.670;2023-02-01T10:33:24;100017.78;;;5.53;92.15
41712;BME280;27399;51.516;13.670;2023-02-01T10:35:58;99997.38;;;5.27;92.03
41712;BME280;27399;51.516;13.670;2023-02-01T10:38:28;100026.56;;;5.47;92.38
41712;BME280;27399;51.516;13.670;2023-02-01T10:41:01;100014.28;;;5.58;91.42
41712;BME280;27399;51.516;13.670;2023-02-01T10:43:28;100036.31;;;5.56;92.04
41712;BME280;27399;51.516;13.670;2023-02-01T10:45:53;100040.66;;;5.45;91.94
41712;BME280;27399;51.516;13.670;2023-02-01T10:48:19;100034.53;;;5.52;91.58
41712;BME280;27399;51.516;13.670;2023-02-01T10:50:57;100046.88;;;5.53;91.80
41712;BME280;27399;51.516;13.670;2023-02-01T10:53:48;100047.84;;;5.64;91.08
41712;BME280;27399;51.516;13.670;2023-02-01T10:56:22;100058.47;;;5.70;90.72
41712;BME280;27399;51.516;13.670;2023-02-01T10:58:49;100055.88;;;5.80;90.52
41712;BME280;27399;51.516;13.670;2023-02-01T11:01:19;100050.47;;;5.64;90.73
41712;BME280;27399;51.516;13.670;2023-02-01T11:03:58;100041.69;;;5.71;89.83
41712;BME280;27399;51.516;13.670;2023-02-01T11:06:29;100044.38;;;5.76;89.56
41712;BME280;27399;51.516;13.670;2023-02-01T11:09:09;100047.06;;;5.81;90.33
41712;BME280;27399;51.516;13.670;2023-02-01T11:11:56;100047.94;;;5.84;90.58
41712;BME280;27399;51.516;13.670;2023-02-01T11:19:45;100032.91;;;5.79;89.18
41712;BME280;27399;51.516;13.670;2023-02-01T11:22:12;100054.22;;;6.00;89.76
41712;BME280;27399;51.516;13.670;2023-02-01T11:24:40;100056.00;;;6.01;87.78
41712;BME280;27399;51.516;13.670;2023-02-01T11:27:14;100053.25;;;5.89;88.58
41712;BME280;27399;51.516;13.670;2023-02-01T11:29:45;100043.63;;;6.02;89.62
41712;BME280;27399;51.516;13.670;2023-02-01T11:32:14;100033.13;;;6.25;88.11
41712;BME280;27399;51.516;13.670;2023-02-01T11:35:03;100032.19;;;6.12;88.57
41712;BME280;27399;51.516;13.670;2023-02-01T11:37:39;100036.59;;;6.09;87.65
41712;BME280;27399;51.516;13.670;2023-02-01T11:40:35;100034.06;;;6.44;86.10
41712;BME280;27399;51.516;13.670;2023-02-01T11:43:28;100034.91;;;6.25;86.74
41712;BME280;27399;51.516;13.670;2023-02-01T11:45:58;100034.03;;;6.30;87.08
41712;BME280;27399;51.516;13.670;2023-02-01T11:48:26;100033.19;;;6.53;87.51
41712;BME280;27399;51.516;13.670;2023-02-01T11:56:35;100040.25;;;6.40;88.03
41712;BME280;27399;51.516;13.670;2023-02-01T12:07:37;100027.88;;;6.44;89.51
41712;BME280;27399;51.516;13.670;2023-02-01T12:16:40;100031.44;;;6.55;87.60
41712;BME280;27399;51.516;13.670;2023-02-01T12:19:00;100042.88;;;6.42;88.50
41712;BME280;27399;51.516;13.670;2023-02-01T12:33:15;100013.78;;;6.68;89.40
41712;BME280;27399;51.516;13.670;2023-02-01T12:36:10;100005.81;;;6.51;90.47
41712;BME280;27399;51.516;13.670;2023-02-01T12:47:32;100010.22;;;6.67;90.41
41712;BME280;27399;51.516;13.670;2023-02-01T12:53:12;99997.91;;;6.85;90.36
41712;BME280;27399;51.516;13.670;2023-02-01T12:55:51;99989.94;;;6.66;90.08
41712;BME280;27399;51.516;13.670;2023-02-01T12:58:22;99985.53;;;6.79;89.40
41712;BME280;27399;51.516;13.670;2023-02-01T13:00:55;99982.00;;;6.66;89.68
41712;BME280;27399;51.516;13.670;2023-02-01T13:03:43;99964.31;;;6.84;89.71
41712;BME280;27399;51.516;13.670;2023-02-01T13:06:19;99970.50;;;6.86;89.39
41712;BME280;27399;51.516;13.670;2023-02-01T13:08:49;99961.66;;;6.84;89.36
41712;BME280;27399;51.516;13.670;2023-02-01T13:11:40;99963.44;;;6.65;90.12
41712;BME280;27399;51.516;13.670;2023-02-01T13:14:42;99964.31;;;6.69;89.75
41712;BME280;27399;51.516;13.670;2023-02-01T13:17:16;99951.94;;;6.86;89.06
41712;BME280;27399;51.516;13.670;2023-02-01T13:20:03;99952.81;;;6.90;87.72
41712;BME280;27399;51.516;13.670;2023-02-01T13:25:11;99945.75;;;6.73;87.36
41712;BME280;27399;51.516;13.670;2023-02-01T13:27:38;99938.66;;;6.98;86.71
41712;BME280;27399;51.516;13.670;2023-02-01T13:30:16;99939.56;;;6.85;86.78
41712;BME280;27399;51.516;13.670;2023-02-01T13:35:46;99927.19;;;6.93;85.94
41712;BME280;27399;51.516;13.670;2023-02-01T13:43:51;99934.25;;;6.88;85.72
41712;BME280;27399;51.516;13.670;2023-02-01T13:46:18;99944.00;;;6.91;82.43
41712;BME280;27399;51.516;13.670;2023-02-01T13:48:54;99937.78;;;6.90;81.46
41712;BME280;27399;51.516;13.670;2023-02-01T13:51:35;99933.34;;;7.05;81.41
41712;BME280;27399;51.516;13.670;2023-02-01T13:54:04;99925.41;;;7.08;81.49
41712;BME280;27399;51.516;13.670;2023-02-01T13:56:40;99924.47;;;7.21;80.16
41712;BME280;27399;51.516;13.670;2023-02-01T14:05:10;99912.13;;;7.12;80.15
41712;BME280;27399;51.516;13.670;2023-02-01T14:10:55;99923.56;;;7.35;77.64
41712;BME280;27399;51.516;13.670;2023-02-01T14:21:21;99897.88;;;7.49;79.42
41712;BME280;27399;51.516;13.670;2023-02-01T14:24:13;99903.22;;;7.32;77.38
41712;BME280;27399;51.516;13.670;2023-02-01T14:29:26;99865.19;;;7.35;75.20
41712;BME280;27399;51.516;13.670;2023-02-01T14:39:57;99884.47;;;7.69;74.88
41712;BME280;27399;51.516;13.670;2023-02-01T14:44:53;99887.19;;;7.60;75.36
41712;BME280;27399;51.516;13.670;2023-02-01T14:50:03;99868.78;;;7.27;75.18
41712;BME280;27399;51.516;13.670;2023-02-01T14:58:55;99881.06;;;7.44;75.37
41712;BME280;27399;51.516;13.670;2023-02-01T15:01:23;99880.25;;;7.34;75.03
41712;BME280;27399;51.516;13.670;2023-02-01T15:04:12;99875.75;;;7.50;73.45
41712;BME280;27399;51.516;13.670;2023-02-01T15:12:05;99860.91;;;6.93;78.86
41712;BME280;27399;51.516;13.670;2023-02-01T15:17:40;99851.22;;;6.83;76.19
41712;BME280;27399;51.516;13.670;2023-02-01T15:20:13;99844.09;;;7.01;75.48
41712;BME280;27399;51.516;13.670;2023-02-01T15:22:41;99847.66;;;6.95;76.86
41712;BME280;27399;51.516;13.670;2023-02-01T15:25:19;99845.00;;;6.90;77.71
41712;BME280;27399;51.516;13.670;2023-02-01T15:27:47;99857.44;;;6.76;77.76
41712;BME280;27399;51.516;13.670;2023-02-01T15:30:19;99834.41;;;6.92;78.59
41712;BME280;27399;51.516;13.670;2023-02-01T15:32:45;99820.31;;;6.73;79.62
41712;BME280;27399;51.516;13.670;2023-02-01T15:43:31;99766.44;;;6.74;81.47